Time;durP1;ratioP1;P1;durP2;ratioP2;P2;SDS_P1;SDS_P2;PMS_P1;PMS_P2;Temp;Humidity;BMP_temperature;BMP_pressure;BME280_temperature;BME280_humidity;BME280_pressure;Samples;Min_cycle;Max_cycle;Signal;HPM_P1;HPM_P2
2021/09/12 00:01:25;;;;;;;;;;;18.70;67.80;;;;;;490507;242;1185;-44
2021/09/12 00:03:26;;;;;;;;;;;18.70;67.80;;;;;;490248;240;1183;-44
2021/09/12 00:05:28;;;;;;;;;;;18.80;67.80;;;;;;490206;242;1091;-43
2021/09/12 00:07:29;;;;;;;;;;;18.70;67.70;;;;;;490323;242;1190;-44
2021/09/12 00:09:30;;;;;;;;;;;18.80;67.80;;;;;;490157;242;1332;-44
2021/09/12 00:11:32;;;;;;;;;;;18.80;67.70;;;;;;490124;242;1572;-43
2021/09/12 00:13:33;;;;;;;;;;;18.70;67.80;;;;;;490148;242;1203;-44
2021/09/12 00:15:34;;;;;;;;;;;18.80;67.80;;;;;;490470;242;1488;-43
2021/09/12 00:17:36;;;;;;;;;;;18.80;67.70;;;;;;490222;242;1201;-44
2021/09/12 00:19:37;;;;;;;;;;;18.80;67.80;;;;;;490152;241;2122;-43
2021/09/12 00:21:38;;;;;;;;;;;18.80;67.70;;;;;;490122;242;1061;-44
2021/09/12 00:23:39;;;;;;;;;;;18.80;67.80;;;;;;490177;242;1020;-44
2021/09/12 00:25:41;;;;;;;;;;;18.80;67.80;;;;;;490148;242;1071;-44
2021/09/12 00:27:42;;;;;;;;;;;18.80;67.70;;;;;;490583;242;1113;-43
2021/09/12 00:29:43;;;;;;;;;;;18.80;67.70;;;;;;490622;242;1032;-43
2021/09/12 00:31:45;;;;;;;;;;;18.80;67.70;;;;;;490288;242;1109;-43
2021/09/12 00:33:46;;;;;;;;;;;18.80;67.70;;;;;;490612;242;1162;-43
2021/09/12 00:35:47;;;;;;;;;;;18.80;67.80;;;;;;490441;242;1286;-43
2021/09/12 00:37:50;;;;;;;;;;;18.70;67.70;;;;;;490214;242;1234;-44
2021/09/12 00:39:50;;;;;;;;;;;18.70;67.80;;;;;;490204;242;2315;-44
2021/09/12 00:41:51;;;;;;;;;;;18.80;67.80;;;;;;490493;242;1219;-44
2021/09/12 00:43:53;;;;;;;;;;;18.70;67.80;;;;;;490161;242;1188;-43
2021/09/12 00:45:54;;;;;;;;;;;18.70;67.70;;;;;;490496;242;1467;-43
2021/09/12 00:47:55;;;;;;;;;;;18.80;67.60;;;;;;490258;242;1289;-43
2021/09/12 00:49:57;;;;;;;;;;;18.80;67.70;;;;;;490608;242;1193;-43
2021/09/12 00:51:58;;;;;;;;;;;18.80;67.70;;;;;;490169;242;1554;-44
2021/09/12 00:53:59;;;;;;;;;;;18.80;67.70;;;;;;490158;242;1281;-44
2021/09/12 00:56:01;;;;;;;;;;;18.80;67.80;;;;;;490431;242;1259;-43
2021/09/12 00:58:02;;;;;;;;;;;18.70;67.90;;;;;;490047;242;2318;-43
2021/09/12 01:00:03;;;;;;;;;;;18.80;67.80;;;;;;490155;242;2172;-43
2021/09/12 01:02:05;;;;;;;;;;;18.70;67.90;;;;;;490195;242;1551;-44
2021/09/12 01:04:06;;;;;;;;;;;18.80;67.80;;;;;;490605;242;1199;-43
2021/09/12 01:06:07;;;;;;;;;;;18.80;67.80;;;;;;490180;242;1358;-44
2021/09/12 01:08:09;;;;;;;;;;;18.70;67.70;;;;;;490085;242;1199;-43
2021/09/12 01:10:10;;;;;;;;;;;18.80;67.70;;;;;;490610;242;1207;-44
2021/09/12 01:12:11;;;;;;;;;;;18.80;67.70;;;;;;490279;242;1206;-44
2021/09/12 01:14:14;;;;;;;;;;;18.70;67.80;;;;;;490129;242;1203;-43
2021/09/12 01:16:14;;;;;;;;;;;18.70;67.80;;;;;;490555;242;2315;-44
2021/09/12 01:18:15;;;;;;;;;;;18.80;67.70;;;;;;490602;242;1174;-44
2021/09/12 01:20:17;;;;;;;;;;;18.80;67.70;;;;;;490468;242;2113;-44
2021/09/12 01:22:18;;;;;;;;;;;18.80;67.60;;;;;;490350;242;1200;-44
2021/09/12 01:24:19;;;;;;;;;;;18.80;67.70;;;;;;490126;242;1046;-44
2021/09/12 01:26:21;;;;;;;;;;;18.80;67.80;;;;;;490326;242;1271;-44
2021/09/12 01:28:22;;;;;;;;;;;18.70;67.80;;;;;;490209;242;1209;-44
2021/09/12 01:30:23;;;;;;;;;;;18.80;67.80;;;;;;490155;242;1197;-43
2021/09/12 01:32:25;;;;;;;;;;;18.80;67.80;;;;;;490149;242;1365;-43
2021/09/12 01:34:26;;;;;;;;;;;18.70;67.70;;;;;;490617;242;1097;-43
2021/09/12 01:36:27;;;;;;;;;;;18.80;67.80;;;;;;490037;242;1170;-43
2021/09/12 01:38:29;;;;;;;;;;;18.80;67.80;;;;;;490124;242;1171;-44
2021/09/12 01:40:30;;;;;;;;;;;18.70;67.80;;;;;;490221;242;2177;-43
2021/09/12 01:42:32;;;;;;;;;;;18.70;67.90;;;;;;490594;242;1047;-43
2021/09/12 01:44:33;;;;;;;;;;;18.70;67.90;;;;;;490593;242;1142;-43
2021/09/12 01:46:34;;;;;;;;;;;18.80;67.90;;;;;;490421;242;1140;-43
2021/09/12 01:48:36;;;;;;;;;;;18.80;67.80;;;;;;490378;242;1079;-43
2021/09/12 01:50:37;;;;;;;;;;;18.80;67.80;;;;;;490592;242;1098;-44
2021/09/12 01:52:38;;;;;;;;;;;18.80;67.90;;;;;;490168;242;1202;-44
2021/09/12 01:54:40;;;;;;;;;;;18.70;67.90;;;;;;490158;242;1290;-44
2021/09/12 01:56:41;;;;;;;;;;;18.80;67.80;;;;;;490364;242;1383;-44
2021/09/12 01:58:42;;;;;;;;;;;18.80;67.70;;;;;;490251;242;2146;-43
2021/09/12 02:00:44;;;;;;;;;;;18.80;67.70;;;;;;490525;242;1345;-44
2021/09/12 02:02:45;;;;;;;;;;;18.80;67.70;;;;;;490103;242;1222;-43
2021/09/12 02:04:46;;;;;;;;;;;18.80;67.70;;;;;;490134;242;1044;-43
2021/09/12 02:06:48;;;;;;;;;;;18.70;67.80;;;;;;489936;242;1117;-44
2021/09/12 02:08:49;;;;;;;;;;;18.70;67.80;;;;;;490573;242;1125;-43
2021/09/12 02:10:50;;;;;;;;;;;18.70;67.80;;;;;;490277;242;1145;-44
2021/09/12 02:12:52;;;;;;;;;;;18.80;67.70;;;;;;490242;242;1254;-43
2021/09/12 02:14:53;;;;;;;;;;;18.70;67.80;;;;;;490226;242;932;-43
2021/09/12 02:16:54;;;;;;;;;;;18.70;67.80;;;;;;490525;242;1189;-43
2021/09/12 02:18:56;;;;;;;;;;;18.80;67.90;;;;;;490303;242;2125;-44
2021/09/12 02:20:57;;;;;;;;;;;18.70;67.80;;;;;;490081;242;1236;-44
2021/09/12 02:22:58;;;;;;;;;;;18.70;67.90;;;;;;490147;242;1219;-43
2021/09/12 02:25:00;;;;;;;;;;;18.70;67.80;;;;;;490295;242;1128;-44
2021/09/12 02:27:01;;;;;;;;;;;18.70;67.90;;;;;;490236;242;1304;-43
2021/09/12 02:29:02;;;;;;;;;;;18.70;67.80;;;;;;490582;242;1034;-44
2021/09/12 02:31:04;;;;;;;;;;;18.70;67.90;;;;;;490514;242;1097;-44
2021/09/12 02:33:05;;;;;;;;;;;18.70;67.80;;;;;;490577;242;1232;-43
2021/09/12 02:35:06;;;;;;;;;;;18.80;67.80;;;;;;490596;242;1068;-44
2021/09/12 02:37:08;;;;;;;;;;;18.70;67.90;;;;;;490248;242;1190;-43
2021/09/12 02:39:09;;;;;;;;;;;18.70;67.90;;;;;;490596;242;2141;-44
2021/09/12 02:41:10;;;;;;;;;;;18.70;67.90;;;;;;490478;242;1256;-43
2021/09/12 02:43:11;;;;;;;;;;;18.80;67.90;;;;;;490140;242;1057;-43
2021/09/12 02:45:13;;;;;;;;;;;18.70;67.90;;;;;;490154;242;1207;-43
2021/09/12 02:47:14;;;;;;;;;;;18.70;67.80;;;;;;490430;242;1144;-44
2021/09/12 02:49:15;;;;;;;;;;;18.70;67.90;;;;;;490478;242;1238;-44
2021/09/12 02:51:17;;;;;;;;;;;18.70;67.90;;;;;;490073;242;1140;-44
2021/09/12 02:53:18;;;;;;;;;;;18.70;67.90;;;;;;490472;242;1218;-44
2021/09/12 02:55:19;;;;;;;;;;;18.70;68.10;;;;;;490273;242;1058;-43
2021/09/12 02:57:21;;;;;;;;;;;18.70;68.10;;;;;;490472;242;1149;-44
2021/09/12 02:59:22;;;;;;;;;;;18.70;67.90;;;;;;490490;242;2192;-44
2021/09/12 03:01:23;;;;;;;;;;;18.70;67.90;;;;;;490552;242;1181;-43
2021/09/12 03:03:25;;;;;;;;;;;18.70;67.80;;;;;;490585;242;1238;-44
2021/09/12 03:05:26;;;;;;;;;;;18.70;67.80;;;;;;490278;242;1076;-44
2021/09/12 03:07:27;;;;;;;;;;;18.70;67.80;;;;;;489954;242;1151;-43
2021/09/12 03:09:29;;;;;;;;;;;18.70;67.80;;;;;;490141;242;1079;-43
2021/09/12 03:11:30;;;;;;;;;;;18.80;67.90;;;;;;490323;242;1303;-44
2021/09/12 03:13:31;;;;;;;;;;;18.80;67.80;;;;;;490124;242;1112;-43
2021/09/12 03:15:33;;;;;;;;;;;18.70;67.70;;;;;;490099;242;1180;-44
2021/09/12 03:17:34;;;;;;;;;;;18.70;67.80;;;;;;490238;242;1213;-44
2021/09/12 03:19:35;;;;;;;;;;;18.70;67.90;;;;;;490511;242;2248;-43
2021/09/12 03:21:36;;;;;;;;;;;18.70;67.90;;;;;;490088;242;1249;-43
2021/09/12 03:23:38;;;;;;;;;;;18.60;67.90;;;;;;490145;242;1234;-42
2021/09/12 03:25:39;;;;;;;;;;;18.70;67.90;;;;;;490125;242;972;-43
2021/09/12 03:27:41;;;;;;;;;;;18.70;67.90;;;;;;490216;242;1242;-44
2021/09/12 03:29:42;;;;;;;;;;;18.70;67.90;;;;;;490561;242;1083;-44
2021/09/12 03:31:43;;;;;;;;;;;18.70;67.90;;;;;;490503;242;1227;-43
2021/09/12 03:33:44;;;;;;;;;;;18.70;67.90;;;;;;490109;242;1095;-44
2021/09/12 03:35:46;;;;;;;;;;;18.70;68.00;;;;;;490444;242;1231;-43
2021/09/12 03:37:47;;;;;;;;;;;18.70;68.00;;;;;;490206;242;1231;-43
2021/09/12 03:39:48;;;;;;;;;;;18.70;68.00;;;;;;490080;242;2137;-43
2021/09/12 03:41:50;;;;;;;;;;;18.70;68.00;;;;;;490078;242;1232;-43
2021/09/12 03:43:51;;;;;;;;;;;18.70;67.80;;;;;;490090;242;1178;-43
2021/09/12 03:45:55;;;;;;;;;;;18.70;67.80;;;;;;490123;242;1106;-44
2021/09/12 03:47:54;;;;;;;;;;;18.70;67.80;;;;;;490114;243;1178;-43
2021/09/12 03:49:55;;;;;;;;;;;18.70;67.90;;;;;;490301;242;1177;-44
2021/09/12 03:51:56;;;;;;;;;;;18.70;67.90;;;;;;490362;242;1153;-43
2021/09/12 03:53:58;;;;;;;;;;;18.70;67.80;;;;;;490332;242;1053;-43
2021/09/12 03:55:59;;;;;;;;;;;18.70;67.90;;;;;;490270;242;1218;-43
2021/09/12 03:58:00;;;;;;;;;;;18.70;67.80;;;;;;490565;242;1239;-43
2021/09/12 04:00:02;;;;;;;;;;;18.70;67.90;;;;;;490620;242;2173;-44
2021/09/12 04:02:03;;;;;;;;;;;18.70;67.90;;;;;;490551;242;1144;-43
2021/09/12 04:04:04;;;;;;;;;;;18.70;67.90;;;;;;490501;242;1206;-43
2021/09/12 04:06:05;;;;;;;;;;;18.70;67.80;;;;;;490522;242;1216;-43
2021/09/12 04:08:07;;;;;;;;;;;18.70;67.90;;;;;;490333;242;1240;-44
2021/09/12 04:10:08;;;;;;;;;;;18.70;68.00;;;;;;490188;242;1211;-44
2021/09/12 04:12:09;;;;;;;;;;;18.70;68.10;;;;;;490548;242;1190;-44
2021/09/12 04:14:11;;;;;;;;;;;18.70;67.80;;;;;;490372;242;1020;-43
2021/09/12 04:16:12;;;;;;;;;;;18.70;67.80;;;;;;490563;242;1733;-44
2021/09/12 04:18:13;;;;;;;;;;;18.70;67.90;;;;;;490313;242;1184;-43
2021/09/12 04:20:15;;;;;;;;;;;18.70;67.80;;;;;;490579;242;2134;-44
2021/09/12 04:22:16;;;;;;;;;;;18.70;67.80;;;;;;490385;242;1257;-43
2021/09/12 04:24:17;;;;;;;;;;;18.70;67.80;;;;;;490154;242;1169;-44
2021/09/12 04:26:19;;;;;;;;;;;18.70;67.80;;;;;;490556;242;1293;-44
2021/09/12 04:28:20;;;;;;;;;;;18.70;67.90;;;;;;490142;242;1242;-43
2021/09/12 04:30:21;;;;;;;;;;;18.70;67.90;;;;;;490392;242;1172;-43
2021/09/12 04:32:23;;;;;;;;;;;18.70;67.90;;;;;;490346;242;1229;-44
2021/09/12 04:34:24;;;;;;;;;;;18.70;67.90;;;;;;490601;242;1154;-44
2021/09/12 04:36:25;;;;;;;;;;;18.70;67.80;;;;;;490078;242;1315;-43
2021/09/12 04:38:27;;;;;;;;;;;18.70;67.70;;;;;;490033;242;1141;-43
2021/09/12 04:40:28;;;;;;;;;;;18.70;67.80;;;;;;490504;242;2192;-44
2021/09/12 04:42:29;;;;;;;;;;;18.80;67.80;;;;;;490128;242;1165;-44
2021/09/12 04:44:31;;;;;;;;;;;18.70;67.80;;;;;;490162;242;1050;-44
2021/09/12 04:46:32;;;;;;;;;;;18.70;67.80;;;;;;490579;242;1131;-44
2021/09/12 04:48:33;;;;;;;;;;;18.70;67.90;;;;;;490607;242;1194;-44
2021/09/12 04:50:34;;;;;;;;;;;18.70;68.00;;;;;;490590;242;1266;-44
2021/09/12 04:52:36;;;;;;;;;;;18.60;68.00;;;;;;490310;242;1059;-44
2021/09/12 04:54:37;;;;;;;;;;;18.60;68.10;;;;;;490556;242;1066;-44
2021/09/12 04:56:39;;;;;;;;;;;18.60;68.10;;;;;;490497;242;1279;-44
2021/09/12 04:58:40;;;;;;;;;;;18.70;68.10;;;;;;490542;242;1135;-43
2021/09/12 05:00:41;;;;;;;;;;;18.60;68.00;;;;;;490575;242;2130;-43
2021/09/12 05:02:42;;;;;;;;;;;18.60;68.00;;;;;;490259;242;1178;-43
2021/09/12 05:04:44;;;;;;;;;;;18.60;68.00;;;;;;490616;242;1035;-44
2021/09/12 05:06:45;;;;;;;;;;;18.70;68.00;;;;;;490235;242;1140;-44
2021/09/12 05:08:47;;;;;;;;;;;18.70;68.10;;;;;;490346;242;1255;-43
2021/09/12 05:10:48;;;;;;;;;;;18.60;68.00;;;;;;490125;242;1462;-44
2021/09/12 05:12:49;;;;;;;;;;;18.70;68.00;;;;;;490214;242;1168;-43
2021/09/12 05:14:51;;;;;;;;;;;18.70;68.00;;;;;;490147;242;1082;-43
2021/09/12 05:16:52;;;;;;;;;;;18.60;68.00;;;;;;490170;242;1084;-44
2021/09/12 05:18:53;;;;;;;;;;;18.70;68.10;;;;;;490116;242;1076;-43
2021/09/12 05:20:55;;;;;;;;;;;18.70;67.90;;;;;;490589;242;2117;-43
2021/09/12 05:22:56;;;;;;;;;;;18.70;68.00;;;;;;490619;242;1175;-44
2021/09/12 05:24:57;;;;;;;;;;;18.70;68.00;;;;;;490194;242;1163;-44
2021/09/12 05:26:59;;;;;;;;;;;18.60;68.10;;;;;;490355;242;1249;-43
2021/09/12 05:29:00;;;;;;;;;;;18.70;67.90;;;;;;490292;242;1189;-43
2021/09/12 05:31:01;;;;;;;;;;;18.70;67.80;;;;;;490572;242;1058;-43
2021/09/12 05:33:03;;;;;;;;;;;18.70;67.90;;;;;;490222;242;1152;-44
2021/09/12 05:35:04;;;;;;;;;;;18.70;67.80;;;;;;490591;242;1037;-42
2021/09/12 05:37:05;;;;;;;;;;;18.70;67.90;;;;;;490264;242;1235;-44
2021/09/12 05:39:06;;;;;;;;;;;18.70;67.90;;;;;;490546;242;1095;-44
2021/09/12 05:41:08;;;;;;;;;;;18.70;67.90;;;;;;490077;242;2189;-43
2021/09/12 05:43:10;;;;;;;;;;;18.70;67.90;;;;;;490575;242;1132;-44
2021/09/12 05:45:11;;;;;;;;;;;18.70;67.80;;;;;;490555;242;2275;-44
2021/09/12 05:47:12;;;;;;;;;;;18.70;67.80;;;;;;490052;242;1190;-44
2021/09/12 05:49:13;;;;;;;;;;;18.70;67.90;;;;;;490160;242;2050;-43
2021/09/12 05:51:14;;;;;;;;;;;18.70;67.80;;;;;;490353;242;1382;-44
2021/09/12 05:53:18;;;;;;;;;;;18.70;67.90;;;;;;490128;242;1181;-44
2021/09/12 05:55:18;;;;;;;;;;;18.70;67.80;;;;;;490033;243;1357;-44
2021/09/12 05:57:20;;;;;;;;;;;18.70;67.90;;;;;;490509;242;1194;-42
2021/09/12 05:59:21;;;;;;;;;;;18.70;67.90;;;;;;490219;242;1040;-43
2021/09/12 06:01:22;;;;;;;;;;;18.60;68.00;;;;;;490450;242;2184;-44
2021/09/12 06:03:23;;;;;;;;;;;18.60;68.00;;;;;;490311;242;1236;-44
2021/09/12 06:05:25;;;;;;;;;;;18.70;68.10;;;;;;490393;242;1204;-44
2021/09/12 06:07:26;;;;;;;;;;;18.70;67.90;;;;;;490359;242;1159;-43
2021/09/12 06:09:27;;;;;;;;;;;18.70;67.90;;;;;;490563;242;1375;-44
2021/09/12 06:11:29;;;;;;;;;;;18.70;67.80;;;;;;490420;242;1175;-44
2021/09/12 06:13:30;;;;;;;;;;;18.70;67.90;;;;;;490565;242;1206;-43
2021/09/12 06:15:31;;;;;;;;;;;18.70;68.00;;;;;;490575;242;1168;-43
2021/09/12 06:17:33;;;;;;;;;;;18.70;67.90;;;;;;490016;242;1250;-43
2021/09/12 06:19:34;;;;;;;;;;;18.70;68.10;;;;;;490141;242;1299;-43
2021/09/12 06:21:36;;;;;;;;;;;18.60;68.00;;;;;;490240;242;2209;-43
2021/09/12 06:23:37;;;;;;;;;;;18.70;68.00;;;;;;490625;242;1078;-44
2021/09/12 06:25:38;;;;;;;;;;;18.70;68.10;;;;;;490605;242;1042;-44
2021/09/12 06:27:40;;;;;;;;;;;18.60;67.90;;;;;;490066;242;1209;-43
2021/09/12 06:29:41;;;;;;;;;;;18.60;68.00;;;;;;490558;242;1122;-43
2021/09/12 06:31:42;;;;;;;;;;;18.60;68.10;;;;;;490536;242;1330;-44
2021/09/12 06:33:44;;;;;;;;;;;18.60;68.00;;;;;;490590;242;1042;-44
2021/09/12 06:35:45;;;;;;;;;;;18.70;68.10;;;;;;490560;242;1256;-43
2021/09/12 06:37:46;;;;;;;;;;;18.70;68.00;;;;;;490122;242;1178;-44
2021/09/12 06:39:48;;;;;;;;;;;18.70;67.90;;;;;;490057;242;1158;-44
2021/09/12 06:41:49;;;;;;;;;;;18.70;67.80;;;;;;490324;242;2113;-44
2021/09/12 06:43:50;;;;;;;;;;;18.70;67.80;;;;;;490551;242;1121;-44
2021/09/12 06:45:51;;;;;;;;;;;18.60;67.90;;;;;;490291;242;1190;-44
2021/09/12 06:47:53;;;;;;;;;;;18.70;68.10;;;;;;490212;242;1124;-43
2021/09/12 06:49:54;;;;;;;;;;;18.70;67.90;;;;;;490583;242;1923;-44
2021/09/12 06:51:55;;;;;;;;;;;18.60;68.00;;;;;;490082;242;1339;-44
2021/09/12 06:53:57;;;;;;;;;;;18.70;68.00;;;;;;490583;242;1095;-44
2021/09/12 06:55:58;;;;;;;;;;;18.70;67.90;;;;;;490127;242;1078;-44
2021/09/12 06:57:59;;;;;;;;;;;18.70;68.00;;;;;;490253;242;1036;-43
2021/09/12 07:00:01;;;;;;;;;;;18.70;67.90;;;;;;490108;242;1024;-43
2021/09/12 07:02:02;;;;;;;;;;;18.70;68.00;;;;;;490178;242;2188;-43
2021/09/12 07:04:03;;;;;;;;;;;18.70;67.90;;;;;;490489;242;1174;-44
2021/09/12 07:06:05;;;;;;;;;;;18.60;68.00;;;;;;490572;242;1082;-43
2021/09/12 07:08:06;;;;;;;;;;;18.60;68.00;;;;;;490278;242;1305;-43
2021/09/12 07:10:07;;;;;;;;;;;18.70;68.00;;;;;;490298;242;1248;-43
2021/09/12 07:12:09;;;;;;;;;;;18.70;68.00;;;;;;490233;242;1210;-43
2021/09/12 07:14:10;;;;;;;;;;;18.70;68.10;;;;;;490342;242;1346;-43
2021/09/12 07:16:12;;;;;;;;;;;18.70;68.10;;;;;;490535;242;959;-44
2021/09/12 07:18:13;;;;;;;;;;;18.60;68.10;;;;;;490074;242;1080;-44
2021/09/12 07:20:14;;;;;;;;;;;18.70;68.00;;;;;;490600;242;1101;-44
2021/09/12 07:22:15;;;;;;;;;;;18.70;68.00;;;;;;490352;242;2200;-44
2021/09/12 07:24:17;;;;;;;;;;;18.70;67.90;;;;;;490589;242;1068;-44
2021/09/12 07:26:18;;;;;;;;;;;18.70;67.80;;;;;;490470;242;1132;-43
2021/09/12 07:28:20;;;;;;;;;;;18.70;67.90;;;;;;490553;242;1360;-44
2021/09/12 07:30:21;;;;;;;;;;;18.60;68.00;;;;;;490576;242;1106;-43
2021/09/12 07:32:22;;;;;;;;;;;18.60;68.00;;;;;;490348;242;1074;-44
2021/09/12 07:34:23;;;;;;;;;;;18.60;68.00;;;;;;490574;242;1174;-44
2021/09/12 07:36:25;;;;;;;;;;;18.70;68.00;;;;;;490055;242;1334;-43
2021/09/12 07:38:26;;;;;;;;;;;18.60;68.00;;;;;;490173;242;1178;-44
2021/09/12 07:40:28;;;;;;;;;;;18.70;68.00;;;;;;490055;242;1278;-43
2021/09/12 07:42:29;;;;;;;;;;;18.70;68.10;;;;;;490519;242;2137;-43
2021/09/12 07:44:30;;;;;;;;;;;18.60;68.00;;;;;;490249;242;1077;-44
2021/09/12 07:46:32;;;;;;;;;;;18.70;68.00;;;;;;490121;242;1254;-44
2021/09/12 07:48:33;;;;;;;;;;;18.60;67.90;;;;;;490633;242;1030;-43
2021/09/12 07:50:34;;;;;;;;;;;18.60;68.10;;;;;;490651;242;1050;-43
2021/09/12 07:52:36;;;;;;;;;;;18.60;68.10;;;;;;490567;242;1326;-43
2021/09/12 07:54:37;;;;;;;;;;;18.60;68.10;;;;;;490122;242;1608;-44
2021/09/12 07:56:38;;;;;;;;;;;18.60;68.10;;;;;;490519;242;1304;-43
2021/09/12 07:58:39;;;;;;;;;;;18.60;68.10;;;;;;490549;242;1059;-43
2021/09/12 08:00:41;;;;;;;;;;;18.60;68.00;;;;;;490327;242;1169;-43
2021/09/12 08:02:43;;;;;;;;;;;18.60;68.00;;;;;;490580;242;2126;-44
2021/09/12 08:04:44;;;;;;;;;;;18.60;68.10;;;;;;490360;242;1184;-43
2021/09/12 08:06:45;;;;;;;;;;;18.60;68.10;;;;;;490175;242;1340;-44
2021/09/12 08:08:46;;;;;;;;;;;18.60;68.10;;;;;;490564;242;1045;-43
2021/09/12 08:10:48;;;;;;;;;;;18.60;68.10;;;;;;490539;242;1175;-43
2021/09/12 08:12:49;;;;;;;;;;;18.60;68.10;;;;;;490379;242;1145;-44
2021/09/12 08:14:51;;;;;;;;;;;18.70;68.10;;;;;;490172;242;1178;-43
2021/09/12 08:16:53;;;;;;;;;;;18.60;68.00;;;;;;490284;242;1188;-43
2021/09/12 08:18:53;;;;;;;;;;;18.70;68.10;;;;;;490249;242;2120;-43
2021/09/12 08:20:54;;;;;;;;;;;18.60;68.00;;;;;;490438;242;1250;-44
2021/09/12 08:22:56;;;;;;;;;;;18.70;68.00;;;;;;490625;242;2180;-43
2021/09/12 08:24:57;;;;;;;;;;;18.60;67.90;;;;;;490639;242;1066;-43
2021/09/12 08:26:58;;;;;;;;;;;18.60;68.00;;;;;;490506;242;1187;-44
2021/09/12 08:29:00;;;;;;;;;;;18.60;68.00;;;;;;490579;242;1176;-44
2021/09/12 08:31:01;;;;;;;;;;;18.70;68.10;;;;;;490079;242;1278;-44
2021/09/12 08:33:02;;;;;;;;;;;18.70;67.90;;;;;;490283;242;1250;-44
2021/09/12 08:35:04;;;;;;;;;;;18.70;67.90;;;;;;490168;242;1067;-44
2021/09/12 08:37:05;;;;;;;;;;;18.70;67.90;;;;;;490143;242;1251;-43
2021/09/12 08:39:06;;;;;;;;;;;18.60;67.90;;;;;;490605;242;1045;-44
2021/09/12 08:41:08;;;;;;;;;;;18.70;68.00;;;;;;490348;242;2213;-43
2021/09/12 08:43:09;;;;;;;;;;;18.60;68.00;;;;;;490483;242;1211;-44
2021/09/12 08:45:10;;;;;;;;;;;18.70;68.00;;;;;;490176;242;1131;-44
2021/09/12 08:47:12;;;;;;;;;;;18.70;68.00;;;;;;490148;242;1356;-44
2021/09/12 08:49:13;;;;;;;;;;;18.70;67.80;;;;;;490207;242;1035;-44
2021/09/12 08:51:14;;;;;;;;;;;18.70;67.90;;;;;;490148;242;1241;-43
2021/09/12 08:53:16;;;;;;;;;;;18.70;68.00;;;;;;490517;242;1172;-44
2021/09/12 08:55:17;;;;;;;;;;;18.60;68.10;;;;;;490138;242;1209;-43
2021/09/12 08:57:18;;;;;;;;;;;18.60;68.10;;;;;;490082;242;1513;-43
2021/09/12 08:59:19;;;;;;;;;;;18.60;68.10;;;;;;490174;242;1204;-43
2021/09/12 09:01:21;;;;;;;;;;;18.60;68.10;;;;;;490426;242;2185;-44
2021/09/12 09:03:22;;;;;;;;;;;18.70;68.00;;;;;;490584;242;1257;-43
2021/09/12 09:05:23;;;;;;;;;;;18.70;67.90;;;;;;490567;242;1120;-44
2021/09/12 09:07:25;;;;;;;;;;;18.70;67.90;;;;;;490458;242;1233;-43
2021/09/12 09:09:26;;;;;;;;;;;18.70;68.10;;;;;;490593;242;1055;-44
2021/09/12 09:11:28;;;;;;;;;;;18.60;68.00;;;;;;490405;242;1111;-43
2021/09/12 09:13:30;;;;;;;;;;;18.70;67.90;;;;;;490601;242;1158;-43
2021/09/12 09:15:32;;;;;;;;;;;18.60;67.80;;;;;;490581;242;1076;-44
2021/09/12 09:17:33;;;;;;;;;;;18.70;68.00;;;;;;490109;243;1528;-44
2021/09/12 09:19:34;;;;;;;;;;;18.60;68.00;;;;;;490232;242;1185;-44
2021/09/12 09:21:35;;;;;;;;;;;18.60;68.00;;;;;;490474;242;2197;-44
2021/09/12 09:23:36;;;;;;;;;;;18.60;68.10;;;;;;490119;242;1121;-43
2021/09/12 09:25:38;;;;;;;;;;;18.50;68.10;;;;;;490265;242;1309;-43
2021/09/12 09:27:39;;;;;;;;;;;18.60;68.20;;;;;;490449;242;1158;-44
2021/09/12 09:29:41;;;;;;;;;;;18.70;68.10;;;;;;490581;242;1127;-43
2021/09/12 09:31:42;;;;;;;;;;;18.70;67.90;;;;;;490194;242;1395;-43
2021/09/12 09:33:43;;;;;;;;;;;18.60;68.00;;;;;;490132;242;1180;-44
2021/09/12 09:35:44;;;;;;;;;;;18.70;67.90;;;;;;490419;242;1108;-43
2021/09/12 09:37:46;;;;;;;;;;;18.60;68.10;;;;;;490538;242;1033;-43
2021/09/12 09:39:47;;;;;;;;;;;18.60;68.10;;;;;;490600;242;1208;-44
2021/09/12 09:41:49;;;;;;;;;;;18.60;68.10;;;;;;489967;242;2203;-43
2021/09/12 09:43:50;;;;;;;;;;;18.70;68.00;;;;;;490539;243;2008;-43
2021/09/12 09:45:51;;;;;;;;;;;18.60;68.00;;;;;;490195;242;1206;-43
2021/09/12 09:47:52;;;;;;;;;;;18.60;68.10;;;;;;490592;243;1137;-44
2021/09/12 09:49:54;;;;;;;;;;;18.60;68.00;;;;;;490162;242;1159;-44
2021/09/12 09:51:55;;;;;;;;;;;18.50;68.20;;;;;;490313;242;1311;-43
2021/09/12 09:53:58;;;;;;;;;;;18.60;68.20;;;;;;490615;242;1107;-43
2021/09/12 09:55:58;;;;;;;;;;;18.60;68.30;;;;;;490518;243;2376;-43
2021/09/12 09:57:59;;;;;;;;;;;18.50;68.20;;;;;;490134;242;1235;-43
2021/09/12 10:00:00;;;;;;;;;;;18.60;68.10;;;;;;490589;242;1694;-44
2021/09/12 10:02:02;;;;;;;;;;;18.60;68.10;;;;;;490521;242;2200;-44
2021/09/12 10:04:03;;;;;;;;;;;18.60;68.10;;;;;;490586;242;1046;-43
2021/09/12 10:06:04;;;;;;;;;;;18.60;68.10;;;;;;490580;242;1196;-44
2021/09/12 10:08:06;;;;;;;;;;;18.60;68.10;;;;;;490613;242;1033;-43
2021/09/12 10:10:07;;;;;;;;;;;18.60;68.00;;;;;;490632;242;1057;-43
2021/09/12 10:12:09;;;;;;;;;;;18.60;68.00;;;;;;490048;242;1205;-44
2021/09/12 10:14:10;;;;;;;;;;;18.60;67.90;;;;;;490243;242;1133;-44
2021/09/12 10:16:11;;;;;;;;;;;18.60;68.10;;;;;;490093;242;1265;-43
2021/09/12 10:18:12;;;;;;;;;;;18.60;68.10;;;;;;490121;242;1167;-44
2021/09/12 10:20:14;;;;;;;;;;;18.60;68.10;;;;;;490603;242;1048;-44
2021/09/12 10:22:15;;;;;;;;;;;18.60;68.10;;;;;;490050;242;2134;-43
2021/09/12 10:24:16;;;;;;;;;;;18.60;68.20;;;;;;490208;242;1129;-43
2021/09/12 10:26:18;;;;;;;;;;;18.50;68.20;;;;;;490128;242;1171;-44
2021/09/12 10:28:19;;;;;;;;;;;18.60;68.20;;;;;;490139;242;1200;-43
2021/09/12 10:30:20;;;;;;;;;;;18.60;68.20;;;;;;490378;242;1198;-43
2021/09/12 10:32:22;;;;;;;;;;;18.60;68.10;;;;;;490545;242;1354;-43
2021/09/12 10:34:23;;;;;;;;;;;18.60;68.10;;;;;;490607;242;1081;-43
2021/09/12 10:36:24;;;;;;;;;;;18.60;68.10;;;;;;490601;242;1084;-44
2021/09/12 10:38:26;;;;;;;;;;;18.60;68.10;;;;;;490261;242;1207;-43
2021/09/12 10:40:27;;;;;;;;;;;18.60;68.10;;;;;;490593;242;1207;-44
2021/09/12 10:42:29;;;;;;;;;;;18.60;68.00;;;;;;490513;242;2132;-43
2021/09/12 10:44:30;;;;;;;;;;;18.60;68.10;;;;;;490155;242;1161;-44
2021/09/12 10:46:31;;;;;;;;;;;18.60;68.00;;;;;;490512;242;1133;-43
2021/09/12 10:48:33;;;;;;;;;;;18.70;67.90;;;;;;490573;242;1257;-43
2021/09/12 10:50:34;;;;;;;;;;;18.70;67.90;;;;;;490448;242;1192;-44
2021/09/12 10:52:35;;;;;;;;;;;18.60;68.00;;;;;;490395;242;1361;-44
2021/09/12 10:54:37;;;;;;;;;;;18.60;67.90;;;;;;490593;242;1089;-43
2021/09/12 10:56:39;;;;;;;;;;;18.60;68.00;;;;;;490525;242;1216;-44
2021/09/12 10:58:39;;;;;;;;;;;18.50;68.10;;;;;;490404;242;2020;-43
2021/09/12 11:00:41;;;;;;;;;;;18.60;68.20;;;;;;490602;242;1082;-43
2021/09/12 11:02:42;;;;;;;;;;;18.60;68.10;;;;;;490088;242;2130;-43
2021/09/12 11:04:43;;;;;;;;;;;18.60;68.10;;;;;;490607;242;1207;-44
2021/09/12 11:06:44;;;;;;;;;;;18.60;68.00;;;;;;490342;242;1279;-43
2021/09/12 11:08:46;;;;;;;;;;;18.60;67.90;;;;;;490588;242;1171;-44
2021/09/12 11:10:50;;;;;;;;;;;18.60;68.00;;;;;;490382;242;1201;-44
2021/09/12 11:12:48;;;;;;;;;;;18.60;68.00;;;;;;490193;243;1681;-44
2021/09/12 11:14:50;;;;;;;;;;;18.50;68.10;;;;;;490126;242;1077;-44
2021/09/12 11:16:51;;;;;;;;;;;18.60;68.10;;;;;;490372;242;1266;-44
2021/09/12 11:18:52;;;;;;;;;;;18.60;67.90;;;;;;490604;242;1176;-44
2021/09/12 11:20:54;;;;;;;;;;;18.60;68.00;;;;;;490128;242;1410;-43
2021/09/12 11:22:55;;;;;;;;;;;18.60;68.10;;;;;;490360;242;2200;-44
2021/09/12 11:24:56;;;;;;;;;;;18.60;67.90;;;;;;490183;242;1129;-43
2021/09/12 11:26:58;;;;;;;;;;;18.60;68.00;;;;;;490447;242;1505;-43
2021/09/12 11:28:59;;;;;;;;;;;18.50;68.00;;;;;;490597;242;1210;-44
2021/09/12 11:31:01;;;;;;;;;;;18.60;68.00;;;;;;490567;242;1157;-43
2021/09/12 11:33:02;;;;;;;;;;;18.60;67.90;;;;;;490455;243;2090;-44
2021/09/12 11:35:03;;;;;;;;;;;18.60;68.00;;;;;;490115;242;1144;-43
2021/09/12 11:37:04;;;;;;;;;;;18.60;68.00;;;;;;490183;242;1324;-43
2021/09/12 11:39:06;;;;;;;;;;;18.60;68.10;;;;;;490621;242;1156;-43
2021/09/12 11:41:07;;;;;;;;;;;18.50;68.10;;;;;;490249;242;1232;-43
2021/09/12 11:43:08;;;;;;;;;;;18.60;68.20;;;;;;490456;242;2184;-43
2021/09/12 11:45:10;;;;;;;;;;;18.50;68.10;;;;;;490417;242;1035;-43
2021/09/12 11:47:11;;;;;;;;;;;18.60;68.10;;;;;;490163;242;1189;-43
2021/09/12 11:49:12;;;;;;;;;;;18.60;68.10;;;;;;490040;242;1179;-43
2021/09/12 11:51:14;;;;;;;;;;;18.60;68.20;;;;;;490362;242;1239;-44
2021/09/12 11:53:15;;;;;;;;;;;18.60;68.10;;;;;;490506;242;1285;-44
2021/09/12 11:55:17;;;;;;;;;;;18.60;68.10;;;;;;490083;242;1197;-44
2021/09/12 11:57:18;;;;;;;;;;;18.60;67.90;;;;;;490030;242;1351;-42